Goshen, Indiana
Current Conditions -  °F | °C
As of 11:53 AM on Sunday 23 Nov 2014 (Local Time) from KGSH Reporting Station
Few Clouds Few Clouds  
Wind Chill: 54°   Ceiling: Unl
Heat Index: 54°   Visibility: 10mi
Dew Point: 46°   Wind: 10mph
Humidity: 75%   Direction: 170°S
Pressure: 29.78"   Gusts: NA
Location:  41.59°N, 85.84°W
Report Text: KGSH 231653Z AUTO 17009KT 10SM FEW029 12/08 A2978 RMK AO2 SLP084 T01220078
Loading
Personal Weather Stations






























Interactive Weather Map New forecast layout! Learn more

10-Day Weather Forecast

Advertisements
Track Severe Weather on mobile